sensor_id;sensor_type;location;lat;lon;timestamp;P1;durP1;ratioP1;P2;durP2;ratioP2
70467;SDS011;57934;51.532;7.684;2023-08-17T00:00:11;8.93;;;3.88;;
70467;SDS011;57934;51.532;7.684;2023-08-17T00:02:41;9.55;;;4.30;;
70467;SDS011;57934;51.532;7.684;2023-08-17T00:05:07;8.55;;;3.72;;
70467;SDS011;57934;51.532;7.684;2023-08-17T00:07:33;9.00;;;3.80;;
70467;SDS011;57934;51.532;7.684;2023-08-17T00:09:59;7.85;;;3.85;;
70467;SDS011;57934;51.532;7.684;2023-08-17T00:12:25;4.90;;;3.70;;
70467;SDS011;57934;51.532;7.684;2023-08-17T00:14:51;6.35;;;3.90;;
70467;SDS011;57934;51.532;7.684;2023-08-17T00:17:18;10.02;;;3.58;;
70467;SDS011;57934;51.532;7.684;2023-08-17T00:19:45;7.35;;;3.67;;
70467;SDS011;57934;51.532;7.684;2023-08-17T00:22:11;10.15;;;3.60;;
70467;SDS011;57934;51.532;7.684;2023-08-17T00:24:37;9.65;;;4.00;;
70467;SDS011;57934;51.532;7.684;2023-08-17T00:27:03;12.98;;;5.03;;
70467;SDS011;57934;51.532;7.684;2023-08-17T00:29:29;8.80;;;4.47;;
70467;SDS011;57934;51.532;7.684;2023-08-17T00:31:56;8.95;;;5.05;;
70467;SDS011;57934;51.532;7.684;2023-08-17T00:34:22;9.27;;;5.45;;
70467;SDS011;57934;51.532;7.684;2023-08-17T00:36:48;10.82;;;5.10;;
70467;SDS011;57934;51.532;7.684;2023-08-17T00:39:14;9.60;;;5.70;;
70467;SDS011;57934;51.532;7.684;2023-08-17T00:41:40;11.55;;;5.78;;
70467;SDS011;57934;51.532;7.684;2023-08-17T00:44:06;9.88;;;5.55;;
70467;SDS011;57934;51.532;7.684;2023-08-17T00:46:32;10.27;;;6.03;;
70467;SDS011;57934;51.532;7.684;2023-08-17T00:48:58;12.43;;;6.95;;
70467;SDS011;57934;51.532;7.684;2023-08-17T00:51:25;11.82;;;7.72;;
70467;SDS011;57934;51.532;7.684;2023-08-17T00:53:52;10.43;;;7.10;;
70467;SDS011;57934;51.532;7.684;2023-08-17T00:56:21;13.68;;;7.57;;
70467;SDS011;57934;51.532;7.684;2023-08-17T00:58:48;11.18;;;6.22;;
70467;SDS011;57934;51.532;7.684;2023-08-17T01:01:15;10.35;;;7.53;;
70467;SDS011;57934;51.532;7.684;2023-08-17T01:03:41;7.80;;;6.47;;
70467;SDS011;57934;51.532;7.684;2023-08-17T01:06:08;14.70;;;7.63;;
70467;SDS011;57934;51.532;7.684;2023-08-17T01:08:35;11.82;;;7.95;;
70467;SDS011;57934;51.532;7.684;2023-08-17T01:16:35;15.02;;;10.10;;
70467;SDS011;57934;51.532;7.684;2023-08-17T01:19:07;17.73;;;10.75;;
70467;SDS011;57934;51.532;7.684;2023-08-17T01:21:35;17.50;;;10.82;;
70467;SDS011;57934;51.532;7.684;2023-08-17T01:24:11;21.02;;;11.48;;
70467;SDS011;57934;51.532;7.684;2023-08-17T01:26:37;20.67;;;11.68;;
70467;SDS011;57934;51.532;7.684;2023-08-17T01:29:03;20.98;;;11.95;;
70467;SDS011;57934;51.532;7.684;2023-08-17T01:34:29;19.80;;;13.10;;
70467;SDS011;57934;51.532;7.684;2023-08-17T01:37:01;25.88;;;13.07;;
70467;SDS011;57934;51.532;7.684;2023-08-17T01:39:33;18.77;;;12.60;;
70467;SDS011;57934;51.532;7.684;2023-08-17T01:42:02;26.02;;;13.27;;
70467;SDS011;57934;51.532;7.684;2023-08-17T01:44:30;23.98;;;13.18;;
70467;SDS011;57934;51.532;7.684;2023-08-17T01:46:57;17.25;;;13.43;;
70467;SDS011;57934;51.532;7.684;2023-08-17T01:49:23;15.85;;;12.10;;
70467;SDS011;57934;51.532;7.684;2023-08-17T01:51:49;18.33;;;12.80;;
70467;SDS011;57934;51.532;7.684;2023-08-17T01:54:15;20.15;;;13.40;;
70467;SDS011;57934;51.532;7.684;2023-08-17T01:56:41;18.40;;;13.18;;
70467;SDS011;57934;51.532;7.684;2023-08-17T01:59:07;21.38;;;14.25;;
70467;SDS011;57934;51.532;7.684;2023-08-17T19:32:57;19.67;;;11.65;;
70467;SDS011;57934;51.532;7.684;2023-08-17T19:35:24;18.40;;;11.50;;
70467;SDS011;57934;51.532;7.684;2023-08-17T19:37:53;16.50;;;11.73;;
70467;SDS011;57934;51.532;7.684;2023-08-17T19:40:20;16.65;;;11.38;;
70467;SDS011;57934;51.532;7.684;2023-08-17T19:42:47;17.58;;;11.65;;
70467;SDS011;57934;51.532;7.684;2023-08-17T19:45:15;17.50;;;11.00;;
70467;SDS011;57934;51.532;7.684;2023-08-17T19:47:41;15.38;;;10.40;;
70467;SDS011;57934;51.532;7.684;2023-08-17T19:50:07;15.30;;;10.85;;
70467;SDS011;57934;51.532;7.684;2023-08-17T19:52:35;17.20;;;11.20;;
70467;SDS011;57934;51.532;7.684;2023-08-17T19:55:01;15.82;;;11.07;;
70467;SDS011;57934;51.532;7.684;2023-08-17T19:57:28;16.02;;;11.43;;
70467;SDS011;57934;51.532;7.684;2023-08-17T19:59:55;17.52;;;11.07;;
70467;SDS011;57934;51.532;7.684;2023-08-17T20:02:21;15.50;;;11.20;;
70467;SDS011;57934;51.532;7.684;2023-08-17T20:04:47;17.10;;;11.10;;
70467;SDS011;57934;51.532;7.684;2023-08-17T20:07:13;16.70;;;10.95;;
70467;SDS011;57934;51.532;7.684;2023-08-17T20:09:39;17.80;;;11.95;;
70467;SDS011;57934;51.532;7.684;2023-08-17T20:12:05;16.15;;;12.15;;
70467;SDS011;57934;51.532;7.684;2023-08-17T20:14:35;15.23;;;11.00;;
70467;SDS011;57934;51.532;7.684;2023-08-17T20:17:01;15.98;;;11.48;;
70467;SDS011;57934;51.532;7.684;2023-08-17T20:19:28;17.88;;;12.75;;
70467;SDS011;57934;51.532;7.684;2023-08-17T20:21:58;18.02;;;12.73;;
70467;SDS011;57934;51.532;7.684;2023-08-17T20:24:25;18.27;;;13.27;;
70467;SDS011;57934;51.532;7.684;2023-08-17T20:26:53;18.42;;;13.13;;
70467;SDS011;57934;51.532;7.684;2023-08-17T20:29:19;23.42;;;16.10;;
70467;SDS011;57934;51.532;7.684;2023-08-17T20:31:45;25.63;;;16.45;;
70467;SDS011;57934;51.532;7.684;2023-08-17T20:34:11;21.70;;;15.73;;
70467;SDS011;57934;51.532;7.684;2023-08-17T20:36:37;22.45;;;14.98;;
70467;SDS011;57934;51.532;7.684;2023-08-17T20:39:06;20.67;;;15.07;;
70467;SDS011;57934;51.532;7.684;2023-08-17T20:41:34;24.45;;;17.25;;
70467;SDS011;57934;51.532;7.684;2023-08-17T20:44:00;23.15;;;17.98;;
70467;SDS011;57934;51.532;7.684;2023-08-17T20:46:27;27.25;;;15.68;;
70467;SDS011;57934;51.532;7.684;2023-08-17T20:48:56;21.30;;;14.13;;
70467;SDS011;57934;51.532;7.684;2023-08-17T20:51:23;16.48;;;13.43;;
70467;SDS011;57934;51.532;7.684;2023-08-17T20:53:49;20.20;;;14.63;;
70467;SDS011;57934;51.532;7.684;2023-08-17T20:56:15;19.17;;;13.20;;
70467;SDS011;57934;51.532;7.684;2023-08-17T20:58:41;19.98;;;12.82;;
70467;SDS011;57934;51.532;7.684;2023-08-17T21:01:07;21.27;;;14.13;;
70467;SDS011;57934;51.532;7.684;2023-08-17T21:03:33;22.27;;;15.43;;
70467;SDS011;57934;51.532;7.684;2023-08-17T21:06:07;20.30;;;15.60;;
70467;SDS011;57934;51.532;7.684;2023-08-17T21:11:11;24.02;;;15.93;;
70467;SDS011;57934;51.532;7.684;2023-08-17T21:13:37;21.27;;;15.00;;
70467;SDS011;57934;51.532;7.684;2023-08-17T21:16:04;20.60;;;14.60;;
70467;SDS011;57934;51.532;7.684;2023-08-17T21:18:31;21.30;;;15.40;;
70467;SDS011;57934;51.532;7.684;2023-08-17T21:20:58;23.10;;;15.30;;
70467;SDS011;57934;51.532;7.684;2023-08-17T21:23:25;22.88;;;15.90;;
70467;SDS011;57934;51.532;7.684;2023-08-17T21:25:56;25.38;;;16.17;;
70467;SDS011;57934;51.532;7.684;2023-08-17T21:28:27;24.52;;;16.55;;
70467;SDS011;57934;51.532;7.684;2023-08-17T21:30:59;21.10;;;15.25;;
70467;SDS011;57934;51.532;7.684;2023-08-17T21:33:26;21.73;;;14.38;;
70467;SDS011;57934;51.532;7.684;2023-08-17T21:35:58;21.98;;;15.40;;
70467;SDS011;57934;51.532;7.684;2023-08-17T21:38:33;21.13;;;14.40;;
70467;SDS011;57934;51.532;7.684;2023-08-17T21:41:00;20.02;;;14.07;;
70467;SDS011;57934;51.532;7.684;2023-08-17T21:43:27;20.35;;;14.45;;
70467;SDS011;57934;51.532;7.684;2023-08-17T21:45:59;17.85;;;14.45;;
70467;SDS011;57934;51.532;7.684;2023-08-17T21:48:26;16.48;;;13.27;;
70467;SDS011;57934;51.532;7.684;2023-08-17T21:50:53;19.75;;;14.18;;
70467;SDS011;57934;51.532;7.684;2023-08-17T21:53:19;19.55;;;14.40;;
70467;SDS011;57934;51.532;7.684;2023-08-17T21:55:50;22.58;;;13.93;;
70467;SDS011;57934;51.532;7.684;2023-08-17T21:58:17;22.02;;;14.80;;
70467;SDS011;57934;51.532;7.684;2023-08-17T22:00:44;22.35;;;16.20;;
70467;SDS011;57934;51.532;7.684;2023-08-17T22:03:11;24.48;;;17.20;;
70467;SDS011;57934;51.532;7.684;2023-08-17T22:05:42;23.45;;;15.40;;
70467;SDS011;57934;51.532;7.684;2023-08-17T22:08:10;23.10;;;15.65;;
70467;SDS011;57934;51.532;7.684;2023-08-17T22:10:36;25.88;;;16.67;;
70467;SDS011;57934;51.532;7.684;2023-08-17T22:13:05;24.10;;;15.75;;
70467;SDS011;57934;51.532;7.684;2023-08-17T22:15:31;26.55;;;16.40;;
70467;SDS011;57934;51.532;7.684;2023-08-17T22:17:57;20.35;;;15.48;;
70467;SDS011;57934;51.532;7.684;2023-08-17T22:20:24;24.15;;;16.35;;
70467;SDS011;57934;51.532;7.684;2023-08-17T22:22:50;25.50;;;15.82;;
70467;SDS011;57934;51.532;7.684;2023-08-17T22:25:16;25.13;;;15.63;;
70467;SDS011;57934;51.532;7.684;2023-08-17T22:27:43;21.50;;;15.73;;
70467;SDS011;57934;51.532;7.684;2023-08-17T22:30:09;23.60;;;16.33;;
70467;SDS011;57934;51.532;7.684;2023-08-17T22:32:36;23.73;;;15.68;;
70467;SDS011;57934;51.532;7.684;2023-08-17T22:35:02;23.80;;;15.60;;
70467;SDS011;57934;51.532;7.684;2023-08-17T22:37:28;24.20;;;17.63;;
70467;SDS011;57934;51.532;7.684;2023-08-17T22:39:54;21.35;;;15.50;;
70467;SDS011;57934;51.532;7.684;2023-08-17T22:42:21;23.38;;;15.93;;
70467;SDS011;57934;51.532;7.684;2023-08-17T22:44:49;22.70;;;15.43;;
70467;SDS011;57934;51.532;7.684;2023-08-17T22:47:21;21.10;;;15.50;;
70467;SDS011;57934;51.532;7.684;2023-08-17T22:49:52;21.80;;;15.05;;
70467;SDS011;57934;51.532;7.684;2023-08-17T22:52:20;23.23;;;15.75;;
70467;SDS011;57934;51.532;7.684;2023-08-17T22:54:46;25.98;;;17.63;;
70467;SDS011;57934;51.532;7.684;2023-08-17T22:57:12;24.10;;;17.85;;
70467;SDS011;57934;51.532;7.684;2023-08-17T22:59:38;28.00;;;18.33;;
70467;SDS011;57934;51.532;7.684;2023-08-17T23:02:04;28.25;;;18.92;;
70467;SDS011;57934;51.532;7.684;2023-08-17T23:04:35;27.63;;;18.08;;
70467;SDS011;57934;51.532;7.684;2023-08-17T23:07:01;31.38;;;18.77;;
70467;SDS011;57934;51.532;7.684;2023-08-17T23:09:29;29.73;;;18.92;;
70467;SDS011;57934;51.532;7.684;2023-08-17T23:11:55;30.88;;;19.13;;
70467;SDS011;57934;51.532;7.684;2023-08-17T23:14:21;30.27;;;18.90;;
70467;SDS011;57934;51.532;7.684;2023-08-17T23:16:48;27.77;;;18.70;;
70467;SDS011;57934;51.532;7.684;2023-08-17T23:19:14;32.22;;;19.05;;
70467;SDS011;57934;51.532;7.684;2023-08-17T23:21:40;27.25;;;18.30;;
70467;SDS011;57934;51.532;7.684;2023-08-17T23:24:06;27.13;;;18.73;;
70467;SDS011;57934;51.532;7.684;2023-08-17T23:26:32;34.97;;;20.02;;
70467;SDS011;57934;51.532;7.684;2023-08-17T23:28:59;30.67;;;19.00;;
70467;SDS011;57934;51.532;7.684;2023-08-17T23:31:25;30.85;;;20.02;;
70467;SDS011;57934;51.532;7.684;2023-08-17T23:33:52;35.75;;;21.15;;
70467;SDS011;57934;51.532;7.684;2023-08-17T23:36:18;39.22;;;21.85;;
70467;SDS011;57934;51.532;7.684;2023-08-17T23:38:44;35.25;;;21.27;;
70467;SDS011;57934;51.532;7.684;2023-08-17T23:41:10;40.55;;;22.45;;
70467;SDS011;57934;51.532;7.684;2023-08-17T23:43:37;38.38;;;22.50;;
70467;SDS011;57934;51.532;7.684;2023-08-17T23:46:03;38.80;;;22.17;;
70467;SDS011;57934;51.532;7.684;2023-08-17T23:48:29;41.92;;;21.52;;
70467;SDS011;57934;51.532;7.684;2023-08-17T23:50:55;44.17;;;23.10;;
70467;SDS011;57934;51.532;7.684;2023-08-17T23:53:21;42.05;;;24.65;;
70467;SDS011;57934;51.532;7.684;2023-08-17T23:55:47;47.78;;;24.38;;
70467;SDS011;57934;51.532;7.684;2023-08-17T23:58:14;43.10;;;24.25;;
